This is the latest recevied weather packets stored in our database for station/object JA6XZK-13. If no packets are shown the sender has not sent any weather packets the latest 10 day(s).
| Time | Temp. | Humidity | Pressure | Rain* | Wind** | Luminosity | Snow |
|---|---|---|---|---|---|---|---|
| 1777435671 | 22.22° C | 44% | 1013.6 hPa | - | - | - | - |
| 1777433870 | 22.22° C | 44% | 1013.4 hPa | - | - | - | - |
| 1777432069 | 22.22° C | 43% | 1013.5 hPa | - | - | - | - |
| 1777430268 | 21.67° C | 43% | 1013.7 hPa | - | - | - | - |
| 1777428467 | 21.67° C | 42% | 1013.7 hPa | - | - | - | - |
| 1777426666 | 21.67° C | 42% | 1013.8 hPa | - | - | - | - |
| 1777424865 | 21.67° C | 41% | 1013.8 hPa | - | - | - | - |
| 1777423064 | 21.11° C | 41% | 1013.7 hPa | - | - | - | - |
| 1777421263 | 20.56° C | 39% | 1013.7 hPa | - | - | - | - |
| 1777419462 | 20.56° C | 40% | 1013.3 hPa | - | - | - | - |
| 1777417661 | 20° C | 46% | 1012.9 hPa | - | - | - | - |
| 1777415859 | 19.44° C | 52% | 1012.7 hPa | - | - | - | - |
| 1777414058 | 19.44° C | 54% | 1012.5 hPa | - | - | - | - |
| 1777412257 | 19.44° C | 54% | 1012.3 hPa | - | - | - | - |
| 1777410456 | 19.44° C | 55% | 1011.6 hPa | - | - | - | - |
| 1777408655 | 19.44° C | 54% | 1011.4 hPa | - | - | - | - |
| 1777406854 | 19.44° C | 57% | 1010.8 hPa | - | - | - | - |
| 1777405053 | 19.44° C | 58% | 1010.7 hPa | - | - | - | - |
| 1777403252 | 19.44° C | 59% | 1010.7 hPa | - | - | - | - |
| 1777401451 | 19.44° C | 59% | 1010.5 hPa | - | - | - | - |
| 1777399650 | 20° C | 61% | 1010.4 hPa | - | - | - | - |
| 1777397849 | 20° C | 62% | 1010.2 hPa | - | - | - | - |
| 1777396048 | 20.56° C | 61% | 1010.6 hPa | - | - | - | - |
| 1777394247 | 20.56° C | 58% | 1010.5 hPa | - | - | - | - |
| 1777392446 | 21.11° C | 56% | 1010.7 hPa | - | - | - | - |
* Rain since midnight (hover to see other rain measurements)
** Current wind speed in m/s (hover to see current wind gust speed)